createdAt,value
2023-10-25T00:00:10.459Z,4.55
2023-10-25T00:02:41.167Z,4.47
2023-10-25T00:05:11.592Z,4.61
2023-10-25T00:07:42.174Z,4.72
2023-10-25T00:10:12.767Z,4.8
2023-10-25T00:12:43.111Z,4.7
2023-10-25T00:15:13.669Z,4.6
2023-10-25T00:17:44.152Z,4.61
2023-10-25T00:20:14.681Z,4.65
2023-10-25T00:22:45.341Z,4.61
2023-10-25T00:25:15.842Z,4.58
2023-10-25T00:27:46.451Z,4.6
2023-10-25T00:30:17.030Z,4.52
2023-10-25T00:32:47.301Z,4.54
2023-10-25T00:35:17.928Z,4.45
2023-10-25T00:37:48.375Z,4.46
2023-10-25T00:40:19.063Z,4.51
2023-10-25T00:42:49.612Z,4.61
2023-10-25T00:45:20.104Z,4.53
2023-10-25T00:47:50.454Z,4.48
2023-10-25T00:50:21.071Z,4.48
2023-10-25T00:52:51.563Z,4.63
2023-10-25T00:55:22.229Z,4.63
2023-10-25T00:57:52.772Z,4.58
2023-10-25T01:00:23.401Z,4.4
2023-10-25T01:02:53.958Z,4.36
2023-10-25T01:05:24.460Z,4.38
2023-10-25T01:07:54.779Z,4.43
2023-10-25T01:10:25.352Z,4.4
2023-10-25T01:12:56.101Z,4.58
2023-10-25T01:15:26.535Z,4.69
2023-10-25T01:17:57.103Z,4.49
2023-10-25T01:20:27.662Z,4.49
2023-10-25T01:22:58.264Z,4.31
2023-10-25T01:25:28.838Z,4.35
2023-10-25T01:27:59.478Z,4.4
2023-10-25T01:30:30.058Z,4.32
2023-10-25T01:33:00.636Z,4.39
2023-10-25T01:35:31.187Z,4.38
2023-10-25T01:38:01.783Z,4.23
2023-10-25T01:40:32.362Z,4.41
2023-10-25T01:43:03.067Z,4.29
2023-10-25T01:45:33.546Z,4.39
2023-10-25T01:48:04.236Z,4.29
2023-10-25T01:50:34.726Z,4.42
2023-10-25T01:53:05.331Z,4.47
2023-10-25T01:55:35.968Z,4.39
2023-10-25T01:58:06.529Z,4.45
2023-10-25T02:00:37.153Z,4.47
2023-10-25T02:03:07.844Z,4.37
2023-10-25T02:05:38.236Z,4.34
2023-10-25T02:08:08.836Z,4.5
2023-10-25T02:10:39.675Z,4.4
2023-10-25T02:13:09.715Z,4.47
2023-10-25T02:15:40.332Z,4.35
2023-10-25T02:18:10.863Z,4.53
2023-10-25T02:20:41.431Z,4.27
2023-10-25T02:23:12.053Z,4.4
2023-10-25T02:25:42.719Z,4.34
2023-10-25T02:28:13.276Z,4.57
2023-10-25T02:30:43.940Z,4.65
2023-10-25T02:33:14.565Z,4.5
2023-10-25T02:35:45.046Z,4.43
2023-10-25T02:38:15.578Z,4.46
2023-10-25T02:40:46.150Z,4.59
2023-10-25T02:43:16.851Z,4.39
2023-10-25T02:45:47.261Z,4.5
2023-10-25T02:48:17.662Z,4.32
2023-10-25T02:50:48.316Z,4.45
2023-10-25T02:53:18.950Z,4.47
2023-10-25T02:55:49.489Z,4.35
2023-10-25T02:58:20.053Z,4.41
2023-10-25T03:00:50.674Z,4.44
2023-10-25T03:03:20.986Z,4.35
2023-10-25T03:05:51.493Z,4.53
2023-10-25T03:08:22.070Z,4.51
2023-10-25T03:10:52.653Z,4.5
2023-10-25T03:13:23.329Z,4.61
2023-10-25T03:15:53.890Z,4.62
2023-10-25T03:18:24.385Z,4.76
2023-10-25T03:20:54.951Z,4.89
2023-10-25T03:23:25.553Z,4.94
2023-10-25T03:25:56.140Z,4.96
2023-10-25T03:28:26.755Z,5.08
2023-10-25T03:30:57.362Z,4.94
2023-10-25T03:33:27.954Z,4.94
2023-10-25T03:35:58.161Z,4.93
2023-10-25T03:38:28.738Z,4.86
2023-10-25T03:40:59.267Z,4.7
2023-10-25T03:43:29.868Z,4.67
2023-10-25T03:46:00.466Z,4.72
2023-10-25T03:48:30.993Z,4.78
2023-10-25T03:51:01.658Z,4.66
2023-10-25T03:53:32.132Z,4.59
2023-10-25T03:56:02.704Z,4.55
2023-10-25T03:58:33.291Z,4.46
2023-10-25T04:01:04.724Z,4.37
2023-10-25T04:03:34.623Z,4.41
2023-10-25T04:06:04.978Z,4.36
2023-10-25T04:08:35.582Z,4.48
2023-10-25T04:11:06.203Z,4.38
2023-10-25T04:13:36.742Z,4.33
2023-10-25T04:16:07.340Z,4.35
2023-10-25T04:18:37.869Z,4.31
2023-10-25T04:21:08.436Z,4.5
2023-10-25T04:23:39.028Z,4.36
2023-10-25T04:26:09.592Z,4.38
2023-10-25T04:28:40.311Z,4.38
2023-10-25T04:31:10.828Z,4.44
2023-10-25T04:33:41.502Z,4.37
2023-10-25T04:36:11.895Z,4.38
2023-10-25T04:38:42.483Z,4.38
2023-10-25T04:41:13.047Z,4.37
2023-10-25T04:43:43.633Z,4.44
2023-10-25T04:46:14.346Z,4.34
2023-10-25T04:48:46.180Z,4.4
2023-10-25T04:51:15.339Z,4.4
2023-10-25T04:53:45.938Z,4.32
2023-10-25T04:56:16.530Z,4.42
2023-10-25T04:58:47.128Z,4.41
2023-10-25T05:01:17.933Z,4.42
2023-10-25T05:03:48.127Z,4.4
2023-10-25T05:06:18.587Z,4.44
2023-10-25T05:08:48.984Z,4.49
2023-10-25T05:11:19.190Z,4.57
2023-10-25T05:13:49.755Z,4.59
2023-10-25T05:16:20.239Z,4.56
2023-10-25T05:18:50.793Z,4.66
2023-10-25T05:21:21.271Z,4.62
2023-10-25T05:23:51.634Z,4.64
2023-10-25T05:26:22.278Z,4.65
2023-10-25T05:28:52.778Z,4.85
2023-10-25T05:31:22.818Z,4.66
2023-10-25T05:33:53.036Z,4.79
2023-10-25T05:36:23.780Z,4.89
2023-10-25T05:38:54.048Z,4.89
2023-10-25T05:41:24.724Z,4.81
2023-10-25T05:43:55.255Z,4.79
2023-10-25T05:46:25.927Z,4.81
2023-10-25T05:48:56.016Z,4.67
2023-10-25T05:51:26.328Z,4.74
2023-10-25T05:53:56.618Z,4.61
2023-10-25T05:56:27.295Z,4.85
2023-10-25T05:58:57.361Z,5.23
2023-10-25T06:01:27.817Z,4.88
2023-10-25T06:03:58.493Z,4.76
2023-10-25T06:06:28.365Z,4.85
2023-10-25T06:08:58.397Z,4.73
2023-10-25T06:11:28.963Z,4.9
2023-10-25T06:13:59.109Z,4.81
2023-10-25T06:16:31.477Z,4.66
2023-10-25T06:18:59.382Z,4.72
2023-10-25T06:21:29.347Z,4.57
2023-10-25T06:23:59.537Z,4.56
2023-10-25T06:26:29.855Z,4.71
2023-10-25T06:29:00.575Z,4.76
2023-10-25T06:31:31.298Z,4.71
2023-10-25T06:34:01.355Z,4.72
2023-10-25T06:36:31.758Z,4.73
2023-10-25T06:39:01.914Z,4.8
2023-10-25T06:41:32.626Z,4.66
2023-10-25T06:44:03.022Z,4.79
2023-10-25T06:46:33.837Z,4.75
2023-10-25T06:49:04.425Z,4.83
2023-10-25T06:51:34.924Z,4.88
2023-10-25T06:54:05.538Z,4.93
2023-10-25T06:56:36.514Z,5.04
2023-10-25T06:59:06.749Z,5
2023-10-25T07:01:37.428Z,5
2023-10-25T07:04:07.830Z,4.91
2023-10-25T07:06:38.338Z,4.87
2023-10-25T07:09:09.091Z,4.86
2023-10-25T07:11:39.283Z,4.84
2023-10-25T07:14:10.147Z,4.79
2023-10-25T07:16:40.636Z,4.82
2023-10-25T07:19:10.865Z,4.98
2023-10-25T07:21:40.885Z,4.91
2023-10-25T07:24:11.458Z,4.96
2023-10-25T07:26:42.597Z,4.96
2023-10-25T07:29:12.105Z,5.01
2023-10-25T07:31:42.533Z,5.05
2023-10-25T07:34:13.050Z,5.03
2023-10-25T07:36:43.636Z,4.95
2023-10-25T07:39:14.259Z,4.96
2023-10-25T07:41:44.930Z,5.01
2023-10-25T07:44:15.241Z,5.01
2023-10-25T07:46:45.881Z,4.98
2023-10-25T07:49:16.700Z,5
2023-10-25T07:51:47.364Z,5.02
2023-10-25T07:54:17.668Z,5.05
2023-10-25T07:57:07.437Z,5.14
2023-10-25T07:59:19.690Z,5.1
2023-10-25T08:01:49.044Z,5.04
2023-10-25T08:04:19.340Z,5.08
2023-10-25T08:06:49.843Z,5.04
2023-10-25T08:09:20.148Z,5.09
2023-10-25T08:11:50.790Z,5.03
2023-10-25T08:14:21.341Z,5.03
2023-10-25T08:16:51.932Z,4.9
2023-10-25T08:19:22.419Z,5.01
2023-10-25T08:21:52.966Z,4.97
2023-10-25T08:24:23.271Z,4.9
2023-10-25T08:26:53.502Z,4.9
2023-10-25T08:29:24.120Z,4.91
2023-10-25T08:31:54.613Z,4.85
2023-10-25T08:34:25.184Z,4.91
2023-10-25T08:36:55.777Z,4.91
2023-10-25T08:39:26.306Z,4.91
2023-10-25T08:41:56.884Z,4.89
2023-10-25T08:44:27.438Z,5.13
2023-10-25T08:46:57.957Z,5.14
2023-10-25T08:49:28.528Z,5.01
2023-10-25T08:51:59.054Z,4.93
2023-10-25T08:54:29.612Z,4.93
2023-10-25T08:57:00.181Z,4.97
2023-10-25T08:59:30.724Z,4.91
2023-10-25T09:02:01.342Z,4.92
2023-10-25T09:04:31.904Z,4.85
2023-10-25T09:07:02.334Z,4.84
2023-10-25T09:09:32.932Z,4.86
2023-10-25T09:12:03.380Z,4.9
2023-10-25T09:14:33.685Z,4.91
2023-10-25T09:17:04.166Z,4.84
2023-10-25T09:19:34.427Z,4.94
2023-10-25T09:22:04.952Z,5.01
2023-10-25T09:24:35.509Z,4.91
2023-10-25T09:27:06.132Z,4.94
2023-10-25T09:29:36.716Z,4.91
2023-10-25T09:32:07.102Z,4.84
2023-10-25T09:34:37.596Z,4.74
2023-10-25T09:37:08.094Z,4.72
2023-10-25T09:39:38.613Z,4.65
2023-10-25T09:42:09.139Z,4.63
2023-10-25T09:44:39.762Z,4.68
2023-10-25T09:47:10.135Z,4.75
2023-10-25T09:49:40.864Z,4.75
2023-10-25T09:52:11.124Z,4.8
2023-10-25T09:54:42.297Z,4.88
2023-10-25T09:57:12.120Z,4.89
2023-10-25T09:59:42.776Z,4.78
2023-10-25T10:02:13.264Z,4.6
2023-10-25T10:04:44.049Z,4.44
2023-10-25T10:07:14.106Z,5
2023-10-25T10:09:44.626Z,4.65
2023-10-25T10:12:15.420Z,4.61
2023-10-25T10:14:45.880Z,4.61
2023-10-25T10:17:16.094Z,4.7
2023-10-25T10:19:46.596Z,4.58
2023-10-25T10:22:16.707Z,4.63
2023-10-25T10:24:47.201Z,4.58
2023-10-25T10:27:17.655Z,4.5
2023-10-25T10:29:48.281Z,4.55
2023-10-25T10:32:18.682Z,4.46
2023-10-25T10:34:49.116Z,4.61
2023-10-25T10:37:19.588Z,4.43
2023-10-25T10:39:50.072Z,4.53
2023-10-25T10:42:20.585Z,4.5
2023-10-25T10:44:50.805Z,4.54
2023-10-25T10:47:21.230Z,4.76
2023-10-25T10:49:51.759Z,4.5
2023-10-25T10:52:22.160Z,4.56
2023-10-25T10:54:52.654Z,4.5
2023-10-25T10:57:23.078Z,4.55
2023-10-25T10:59:53.671Z,4.73
2023-10-25T11:02:24.049Z,4.58
2023-10-25T11:04:54.561Z,4.47
2023-10-25T11:07:24.942Z,4.65
2023-10-25T11:09:55.422Z,4.45
2023-10-25T11:12:25.873Z,4.38
2023-10-25T11:14:56.376Z,4.38
2023-10-25T11:17:26.855Z,4.33
2023-10-25T11:19:57.252Z,4.43
2023-10-25T11:22:27.707Z,4.36
2023-10-25T11:24:58.275Z,4.36
2023-10-25T11:27:28.662Z,4.26
2023-10-25T11:29:59.200Z,4.26
2023-10-25T11:32:29.692Z,4.33
2023-10-25T11:35:00.118Z,4.15
2023-10-25T11:37:30.654Z,4.3
2023-10-25T11:40:01.269Z,4.3
2023-10-25T11:42:31.919Z,4.72
2023-10-25T11:45:02.343Z,4.39
2023-10-25T11:47:32.862Z,4.45
2023-10-25T11:50:03.282Z,4.29
2023-10-25T11:52:33.772Z,4.29
2023-10-25T11:55:04.170Z,4.4
2023-10-25T11:57:34.753Z,4.47
2023-10-25T12:00:05.242Z,4.4
2023-10-25T12:02:35.616Z,4.34
2023-10-25T12:05:06.106Z,4.47
2023-10-25T12:07:36.483Z,4.36
2023-10-25T12:10:06.981Z,4.52
2023-10-25T12:12:37.418Z,4.57
2023-10-25T12:15:07.926Z,4.51
2023-10-25T12:17:38.552Z,4.39
2023-10-25T12:22:39.303Z,4.74
2023-10-25T12:25:09.780Z,4.61
2023-10-25T12:27:40.253Z,4.57
2023-10-25T12:30:11.200Z,4.33
2023-10-25T12:32:41.359Z,4.2
2023-10-25T12:35:11.626Z,4.13
2023-10-25T12:37:42.187Z,4.08
2023-10-25T12:40:12.559Z,4.18
2023-10-25T12:42:42.992Z,4.12
2023-10-25T12:45:13.652Z,4.18
2023-10-25T12:47:44.045Z,4.26
2023-10-25T12:50:14.441Z,4.4
2023-10-25T12:52:44.848Z,4.33
2023-10-25T12:55:15.419Z,4.4
2023-10-25T12:57:45.784Z,4.48
2023-10-25T13:00:16.310Z,4.39
2023-10-25T13:02:46.786Z,4.59
2023-10-25T13:05:17.216Z,4.55
2023-10-25T13:07:47.652Z,4.24
2023-10-25T13:10:18.126Z,4.23
2023-10-25T13:12:48.584Z,4.21
2023-10-25T13:15:19.112Z,4.26
2023-10-25T13:17:49.617Z,4.33
2023-10-25T13:20:20.012Z,4.3
2023-10-25T13:22:50.500Z,4.43
2023-10-25T13:25:20.977Z,4.44
2023-10-25T13:27:51.486Z,4.42
2023-10-25T13:30:21.940Z,4.22
2023-10-25T13:32:52.532Z,4.53
2023-10-25T13:35:22.867Z,4.52
2023-10-25T13:37:53.310Z,4.43
2023-10-25T13:40:23.856Z,4.43
2023-10-25T13:42:54.264Z,4.44
2023-10-25T13:45:24.798Z,4.23
2023-10-25T13:47:55.308Z,4.17
2023-10-25T13:50:25.689Z,4.29
2023-10-25T13:52:56.170Z,4.4
2023-10-25T13:55:26.788Z,4.34
2023-10-25T14:00:27.629Z,4.34
2023-10-25T14:02:58.239Z,4.28
2023-10-25T14:05:28.699Z,4.53
2023-10-25T14:07:59.085Z,4.31
2023-10-25T14:10:29.495Z,4.69
2023-10-25T14:13:00.084Z,4.33
2023-10-25T14:15:30.338Z,4.43
2023-10-25T14:18:00.697Z,4.6
2023-10-25T14:20:30.812Z,4.6
2023-10-25T14:23:01.235Z,4.71
2023-10-25T14:25:31.717Z,4.63
2023-10-25T14:28:02.182Z,4.64
2023-10-25T14:30:32.634Z,4.64
2023-10-25T14:33:03.116Z,4.38
2023-10-25T14:35:33.301Z,4.67
2023-10-25T14:38:03.717Z,4.67
2023-10-25T14:40:34.225Z,4.77
2023-10-25T14:43:04.317Z,4.44
2023-10-25T14:45:34.919Z,4.53
2023-10-25T14:48:05.414Z,4.54
2023-10-25T14:50:35.768Z,4.55
2023-10-25T14:53:06.130Z,4.45
2023-10-25T14:55:36.609Z,4.74
2023-10-25T14:58:07.045Z,4.71
2023-10-25T15:00:37.518Z,4.62
2023-10-25T15:03:08.624Z,4.72
2023-10-25T15:05:38.818Z,4.73
2023-10-25T15:08:09.526Z,4.77
2023-10-25T15:10:40.448Z,4.45
2023-10-25T15:13:10.713Z,4.65
2023-10-25T15:15:41.168Z,4.51
2023-10-25T15:18:11.455Z,4.6
2023-10-25T15:20:41.570Z,4.53
2023-10-25T15:23:11.692Z,4.55
2023-10-25T15:25:42.567Z,4.76
2023-10-25T15:28:12.738Z,4.81
2023-10-25T15:30:43.816Z,4.51
2023-10-25T15:33:13.908Z,4.45
2023-10-25T15:35:44.063Z,4.56
2023-10-25T15:38:14.903Z,4.61
2023-10-25T15:40:45.801Z,4.41
2023-10-25T15:43:16.661Z,4.37
2023-10-25T15:45:47.607Z,4.42
2023-10-25T15:48:18.398Z,4.33
2023-10-25T15:50:48.554Z,4.38
2023-10-25T15:53:18.998Z,4.42
2023-10-25T15:55:49.082Z,4.3
2023-10-25T15:58:19.433Z,4.4
2023-10-25T16:00:49.917Z,4.3
2023-10-25T16:03:20.442Z,4.45
2023-10-25T16:05:51.110Z,4.29
2023-10-25T16:08:21.175Z,4.41
2023-10-25T16:10:51.868Z,4.5
2023-10-25T16:13:22.742Z,4.54
2023-10-25T16:15:52.989Z,4.59
2023-10-25T16:18:23.676Z,4.49
2023-10-25T16:20:53.863Z,4.43
2023-10-25T16:23:24.625Z,4.42
2023-10-25T16:25:54.610Z,4.49
2023-10-25T16:28:24.610Z,4.54
2023-10-25T16:30:55.290Z,4.64
2023-10-25T16:33:25.898Z,4.63
2023-10-25T16:35:56.618Z,4.67
2023-10-25T16:38:27.246Z,4.58
2023-10-25T16:40:57.365Z,4.64
2023-10-25T16:43:27.982Z,4.64
2023-10-25T16:45:58.143Z,4.59
2023-10-25T16:48:28.118Z,4.75
2023-10-25T16:50:58.648Z,4.67
2023-10-25T16:53:29.557Z,4.61
2023-10-25T16:55:59.527Z,4.41
2023-10-25T16:58:29.984Z,4.67
2023-10-25T17:01:00.546Z,4.62
2023-10-25T17:03:31.225Z,4.35
2023-10-25T17:06:01.544Z,4.42
2023-10-25T17:08:31.634Z,4.48
2023-10-25T17:11:02.130Z,4.59
2023-10-25T17:13:34.130Z,4.49
2023-10-25T17:16:02.820Z,4.64
2023-10-25T17:18:33.562Z,4.71
2023-10-25T17:21:03.772Z,4.77
2023-10-25T17:23:34.017Z,4.7
2023-10-25T17:26:04.385Z,4.75
2023-10-25T17:28:34.887Z,4.83
2023-10-25T17:31:05.399Z,4.83
2023-10-25T17:33:35.803Z,4.94
2023-10-25T17:36:06.197Z,4.79
2023-10-25T17:38:37.191Z,4.67
2023-10-25T17:41:06.543Z,4.66
2023-10-25T17:43:37.313Z,4.83
2023-10-25T17:46:11.671Z,4.67
2023-10-25T17:48:38.761Z,4.72
2023-10-25T17:51:09.641Z,4.61
2023-10-25T17:53:39.916Z,4.46
2023-10-25T17:56:10.300Z,4.63
2023-10-25T17:58:40.354Z,4.58
2023-10-25T18:01:10.700Z,4.74
2023-10-25T18:03:41.014Z,4.8
2023-10-25T18:06:11.553Z,4.64
2023-10-25T18:08:41.773Z,4.54
2023-10-25T18:11:12.545Z,4.6
2023-10-25T18:13:46.878Z,4.66
2023-10-25T18:16:13.603Z,4.61
2023-10-25T18:18:43.684Z,4.72
2023-10-25T18:21:14.381Z,4.78
2023-10-25T18:23:45.156Z,4.8
2023-10-25T18:26:15.349Z,4.84
2023-10-25T18:28:46.034Z,4.75
2023-10-25T18:32:02.548Z,4.76
2023-10-25T18:33:46.524Z,4.81
2023-10-25T18:36:16.920Z,4.72
2023-10-25T18:38:46.927Z,4.63
2023-10-25T18:41:16.984Z,4.8
2023-10-25T18:43:47.204Z,4.7
2023-10-25T18:46:17.814Z,4.65
2023-10-25T18:48:47.715Z,4.61
2023-10-25T18:51:18.464Z,4.83
2023-10-25T18:53:48.605Z,4.67
2023-10-25T18:56:18.680Z,4.71
2023-10-25T18:58:49.570Z,4.52
2023-10-25T19:01:20.558Z,4.54
2023-10-25T19:03:51.987Z,4.57
2023-10-25T19:06:24.947Z,4.6
2023-10-25T19:08:51.639Z,4.68
2023-10-25T19:11:22.125Z,4.67
2023-10-25T19:13:52.734Z,4.63
2023-10-25T19:16:23.599Z,4.7
2023-10-25T19:18:53.518Z,4.84
2023-10-25T19:21:23.581Z,4.73
2023-10-25T19:23:54.525Z,4.84
2023-10-25T19:26:27.621Z,4.73
2023-10-25T19:28:54.557Z,4.69
2023-10-25T19:31:24.643Z,4.8
2023-10-25T19:33:54.879Z,4.98
2023-10-25T19:36:25.602Z,4.78
2023-10-25T19:38:56.340Z,4.82
2023-10-25T19:41:26.968Z,4.79
2023-10-25T19:43:57.373Z,4.74
2023-10-25T19:46:27.621Z,4.85
2023-10-25T19:48:57.861Z,4.88
2023-10-25T19:51:28.291Z,4.79
2023-10-25T19:53:58.433Z,4.76
2023-10-25T19:56:28.426Z,4.75
2023-10-25T19:58:59.221Z,4.8
2023-10-25T20:01:29.558Z,4.86
2023-10-25T20:04:00.161Z,4.81
2023-10-25T20:06:30.531Z,4.91
2023-10-25T20:09:00.830Z,4.9
2023-10-25T20:11:31.373Z,4.84
2023-10-25T20:14:01.498Z,4.88
2023-10-25T20:16:32.130Z,4.94
2023-10-25T20:19:02.602Z,4.94
2023-10-25T20:21:33.128Z,4.93
2023-10-25T20:24:03.850Z,4.89
2023-10-25T20:26:35.713Z,4.96
2023-10-25T20:29:05.054Z,4.98
2023-10-25T20:31:35.658Z,4.99
2023-10-25T20:34:05.862Z,4.98
2023-10-25T20:36:36.105Z,4.97
2023-10-25T20:39:06.672Z,4.83
2023-10-25T20:41:36.932Z,4.91
2023-10-25T20:44:07.210Z,4.88
2023-10-25T20:46:37.650Z,4.95
2023-10-25T20:49:07.787Z,4.86
2023-10-25T20:51:38.247Z,4.92
2023-10-25T20:54:08.562Z,4.93
2023-10-25T20:56:39.125Z,4.97
2023-10-25T20:59:09.549Z,4.76
2023-10-25T21:01:40.447Z,4.66
2023-10-25T21:04:11.117Z,4.57
2023-10-25T21:06:41.625Z,4.66
2023-10-25T21:09:12.227Z,4.63
2023-10-25T21:11:42.546Z,4.49
2023-10-25T21:14:13.059Z,4.47
2023-10-25T21:16:43.629Z,4.5
2023-10-25T21:19:14.166Z,4.61
2023-10-25T21:21:44.681Z,4.5
2023-10-25T21:24:15.300Z,4.62
2023-10-25T21:26:45.892Z,4.34
2023-10-25T21:29:16.323Z,4.05
2023-10-25T21:31:46.622Z,4.15
2023-10-25T21:34:17.329Z,4.08
2023-10-25T21:36:47.733Z,4.15
2023-10-25T21:39:18.324Z,4.19
2023-10-25T21:41:48.962Z,4.26
2023-10-25T21:44:19.456Z,4.28
2023-10-25T21:46:50.128Z,4.3
2023-10-25T21:49:20.729Z,4.42
2023-10-25T21:51:51.247Z,4.41
2023-10-25T21:54:23.392Z,4.3
2023-10-25T21:56:52.442Z,4.39
2023-10-25T21:59:48.498Z,4.31
2023-10-25T22:01:53.354Z,4.19
2023-10-25T22:04:23.806Z,4.19
2023-10-25T22:06:54.364Z,4.21
2023-10-25T22:09:24.904Z,4.11
2023-10-25T22:11:55.567Z,3.97
2023-10-25T22:14:26.030Z,4.06
2023-10-25T22:16:56.705Z,4.11
2023-10-25T22:19:27.241Z,4.09
2023-10-25T22:21:57.726Z,4.28
2023-10-25T22:24:28.426Z,4.34
2023-10-25T22:26:58.968Z,4.44
2023-10-25T22:29:29.395Z,4.35
2023-10-25T22:31:59.628Z,4.24
2023-10-25T22:34:30.273Z,4.22
2023-10-25T22:37:00.448Z,4.15
2023-10-25T22:39:30.992Z,4.12
2023-10-25T22:42:01.751Z,4.07
2023-10-25T22:44:32.103Z,4.06
2023-10-25T22:47:02.731Z,4.02
2023-10-25T22:49:33.299Z,4.05
2023-10-25T22:52:03.806Z,4.03
2023-10-25T22:54:34.333Z,4.07
2023-10-25T22:57:04.941Z,4.12
2023-10-25T22:59:35.499Z,4
2023-10-25T23:02:06.074Z,4.08
2023-10-25T23:04:36.694Z,4.16
2023-10-25T23:07:07.375Z,4.1
2023-10-25T23:09:37.745Z,4.07
2023-10-25T23:12:08.485Z,4.09
2023-10-25T23:14:38.883Z,4.13
2023-10-25T23:17:09.518Z,4.12
2023-10-25T23:19:40.027Z,4.04
2023-10-25T23:22:10.614Z,3.94
2023-10-25T23:24:41.202Z,4.18
2023-10-25T23:27:11.774Z,4.15
2023-10-25T23:29:42.298Z,4.15
2023-10-25T23:32:12.890Z,4.03
2023-10-25T23:34:43.877Z,3.95
2023-10-25T23:37:14.019Z,3.93
2023-10-25T23:39:44.544Z,3.94
2023-10-25T23:42:15.121Z,4.08
2023-10-25T23:44:46.070Z,4.04
2023-10-25T23:47:16.296Z,4.13
2023-10-25T23:49:46.575Z,4.14
2023-10-25T23:52:17.230Z,4.29
2023-10-25T23:54:54.946Z,4.32
2023-10-25T23:57:18.002Z,4.4
2023-10-25T23:59:48.519Z,4.41
